Campania, Georgia
Current Conditions -  °F | °C
As of 10:55 AM on Thursday 27 Nov 2014 (Local Time) from KHQU Reporting Station
Scattered Clouds Scattered Clouds  
Wind Chill: 51°   Ceiling: Unl
Heat Index: 51°   Visibility: 10mi
Dew Point: 37°   Wind: 12mph
Humidity: 60%   Direction: 300°WNW
Pressure: 30.25"   Gusts: 16mph
Location:  33.4134°N, 82.3106°W
Report Text: KHQU 271555Z AUTO 30010G14KT 10SM SCT050 11/03 A3025 RMK AO1 T01060030
Loading
Personal Weather Stations






























Interactive Weather Map New forecast layout! Learn more

10-Day Weather Forecast

Advertisements
Track Severe Weather on mobile